sensor_id;sensor_type;location;lat;lon;timestamp;P1;durP1;ratioP1;P2;durP2;ratioP2
18776;SDS011;9517;51.174;4.160;2022-08-02T00:02:24;11.37;;;2.53;;
18776;SDS011;9517;51.174;4.160;2022-08-02T00:04:51;14.10;;;2.80;;
18776;SDS011;9517;51.174;4.160;2022-08-02T00:07:18;10.60;;;2.90;;
18776;SDS011;9517;51.174;4.160;2022-08-02T00:09:45;7.90;;;2.30;;
18776;SDS011;9517;51.174;4.160;2022-08-02T00:12:12;9.37;;;2.70;;
18776;SDS011;9517;51.174;4.160;2022-08-02T00:14:39;11.93;;;2.63;;
18776;SDS011;9517;51.174;4.160;2022-08-02T00:17:06;7.83;;;2.70;;
18776;SDS011;9517;51.174;4.160;2022-08-02T00:19:35;9.03;;;3.03;;
18776;SDS011;9517;51.174;4.160;2022-08-02T00:22:02;10.73;;;2.80;;
18776;SDS011;9517;51.174;4.160;2022-08-02T00:24:29;11.30;;;2.87;;
18776;SDS011;9517;51.174;4.160;2022-08-02T00:26:56;10.47;;;3.10;;
18776;SDS011;9517;51.174;4.160;2022-08-02T00:29:23;8.77;;;3.13;;
18776;SDS011;9517;51.174;4.160;2022-08-02T00:31:50;12.30;;;3.37;;
18776;SDS011;9517;51.174;4.160;2022-08-02T00:34:17;11.97;;;3.37;;
18776;SDS011;9517;51.174;4.160;2022-08-02T00:36:46;12.40;;;3.87;;
18776;SDS011;9517;51.174;4.160;2022-08-02T00:39:13;15.33;;;3.47;;
18776;SDS011;9517;51.174;4.160;2022-08-02T00:41:43;13.43;;;3.60;;
18776;SDS011;9517;51.174;4.160;2022-08-02T00:44:12;11.47;;;3.10;;
18776;SDS011;9517;51.174;4.160;2022-08-02T00:46:39;12.33;;;3.70;;
18776;SDS011;9517;51.174;4.160;2022-08-02T00:49:06;12.37;;;3.57;;
18776;SDS011;9517;51.174;4.160;2022-08-02T00:51:34;12.20;;;3.50;;
18776;SDS011;9517;51.174;4.160;2022-08-02T00:54:03;10.77;;;3.43;;
18776;SDS011;9517;51.174;4.160;2022-08-02T00:56:30;10.77;;;3.50;;
18776;SDS011;9517;51.174;4.160;2022-08-02T00:58:58;11.03;;;3.40;;
18776;SDS011;9517;51.174;4.160;2022-08-02T01:01:25;11.67;;;3.80;;
18776;SDS011;9517;51.174;4.160;2022-08-02T01:04:04;10.33;;;2.80;;
18776;SDS011;9517;51.174;4.160;2022-08-02T01:06:31;13.07;;;3.40;;
18776;SDS011;9517;51.174;4.160;2022-08-02T01:08:58;13.00;;;3.20;;
18776;SDS011;9517;51.174;4.160;2022-08-02T01:11:27;11.93;;;3.20;;
18776;SDS011;9517;51.174;4.160;2022-08-02T01:13:55;10.57;;;3.00;;
18776;SDS011;9517;51.174;4.160;2022-08-02T01:16:25;11.53;;;3.23;;
18776;SDS011;9517;51.174;4.160;2022-08-02T01:18:57;9.10;;;2.70;;
18776;SDS011;9517;51.174;4.160;2022-08-02T01:21:39;15.40;;;4.07;;
18776;SDS011;9517;51.174;4.160;2022-08-02T01:24:20;12.77;;;3.10;;
18776;SDS011;9517;51.174;4.160;2022-08-02T01:27:02;11.03;;;3.07;;
18776;SDS011;9517;51.174;4.160;2022-08-02T01:29:45;12.20;;;3.20;;
18776;SDS011;9517;51.174;4.160;2022-08-02T01:32:21;10.13;;;3.50;;
18776;SDS011;9517;51.174;4.160;2022-08-02T01:34:54;12.23;;;3.10;;
18776;SDS011;9517;51.174;4.160;2022-08-02T01:37:26;11.33;;;3.40;;
18776;SDS011;9517;51.174;4.160;2022-08-02T01:39:59;11.50;;;3.30;;
18776;SDS011;9517;51.174;4.160;2022-08-02T01:42:30;14.50;;;3.70;;
18776;SDS011;9517;51.174;4.160;2022-08-02T01:44:59;15.43;;;3.70;;
18776;SDS011;9517;51.174;4.160;2022-08-02T01:47:32;11.50;;;3.73;;
18776;SDS011;9517;51.174;4.160;2022-08-02T01:50:13;13.03;;;3.70;;
18776;SDS011;9517;51.174;4.160;2022-08-02T01:53:03;10.33;;;3.30;;
18776;SDS011;9517;51.174;4.160;2022-08-02T01:55:39;11.07;;;3.50;;
18776;SDS011;9517;51.174;4.160;2022-08-02T01:58:13;13.47;;;3.70;;
18776;SDS011;9517;51.174;4.160;2022-08-02T02:01:40;13.33;;;3.40;;
18776;SDS011;9517;51.174;4.160;2022-08-02T02:04:15;12.27;;;3.30;;
18776;SDS011;9517;51.174;4.160;2022-08-02T02:06:48;12.93;;;3.60;;
18776;SDS011;9517;51.174;4.160;2022-08-02T02:09:45;12.53;;;3.63;;
18776;SDS011;9517;51.174;4.160;2022-08-02T02:13:13;11.47;;;3.73;;
18776;SDS011;9517;51.174;4.160;2022-08-02T02:15:42;12.70;;;4.03;;
18776;SDS011;9517;51.174;4.160;2022-08-02T02:18:33;13.83;;;3.57;;
18776;SDS011;9517;51.174;4.160;2022-08-02T02:21:19;14.57;;;3.87;;
18776;SDS011;9517;51.174;4.160;2022-08-02T02:24:01;12.47;;;3.60;;
18776;SDS011;9517;51.174;4.160;2022-08-02T02:26:28;11.93;;;4.20;;
18776;SDS011;9517;51.174;4.160;2022-08-02T02:28:57;15.67;;;4.23;;
18776;SDS011;9517;51.174;4.160;2022-08-02T02:31:26;10.90;;;3.53;;
18776;SDS011;9517;51.174;4.160;2022-08-02T02:34:00;11.13;;;4.27;;
18776;SDS011;9517;51.174;4.160;2022-08-02T02:36:29;9.50;;;4.20;;
18776;SDS011;9517;51.174;4.160;2022-08-02T02:39:00;11.70;;;4.13;;
18776;SDS011;9517;51.174;4.160;2022-08-02T02:41:30;18.23;;;3.90;;
18776;SDS011;9517;51.174;4.160;2022-08-02T02:43:58;13.27;;;4.03;;
18776;SDS011;9517;51.174;4.160;2022-08-02T02:46:28;9.47;;;3.77;;
18776;SDS011;9517;51.174;4.160;2022-08-02T02:48:56;15.53;;;4.10;;
18776;SDS011;9517;51.174;4.160;2022-08-02T02:51:25;15.77;;;4.47;;
18776;SDS011;9517;51.174;4.160;2022-08-02T02:53:53;14.70;;;4.50;;
18776;SDS011;9517;51.174;4.160;2022-08-02T02:56:21;11.60;;;4.17;;
18776;SDS011;9517;51.174;4.160;2022-08-02T02:58:49;13.57;;;4.57;;
18776;SDS011;9517;51.174;4.160;2022-08-02T03:01:18;15.37;;;4.43;;
18776;SDS011;9517;51.174;4.160;2022-08-02T03:03:56;17.17;;;5.13;;
18776;SDS011;9517;51.174;4.160;2022-08-02T03:06:25;17.97;;;5.03;;
18776;SDS011;9517;51.174;4.160;2022-08-02T03:08:53;11.83;;;4.63;;
18776;SDS011;9517;51.174;4.160;2022-08-02T03:11:20;10.93;;;4.30;;
18776;SDS011;9517;51.174;4.160;2022-08-02T03:13:47;13.20;;;4.37;;
18776;SDS011;9517;51.174;4.160;2022-08-02T03:16:15;16.23;;;5.47;;
18776;SDS011;9517;51.174;4.160;2022-08-02T03:18:42;14.50;;;6.13;;
18776;SDS011;9517;51.174;4.160;2022-08-02T03:21:11;14.70;;;6.73;;
18776;SDS011;9517;51.174;4.160;2022-08-02T03:23:39;22.00;;;7.50;;
18776;SDS011;9517;51.174;4.160;2022-08-02T03:26:07;14.50;;;7.30;;
18776;SDS011;9517;51.174;4.160;2022-08-02T03:28:44;16.20;;;6.87;;
18776;SDS011;9517;51.174;4.160;2022-08-02T03:31:24;15.20;;;7.03;;
18776;SDS011;9517;51.174;4.160;2022-08-02T03:33:51;15.43;;;7.70;;
18776;SDS011;9517;51.174;4.160;2022-08-02T03:36:22;16.03;;;7.27;;
18776;SDS011;9517;51.174;4.160;2022-08-02T03:38:51;16.50;;;8.07;;
18776;SDS011;9517;51.174;4.160;2022-08-02T03:41:19;20.10;;;7.70;;
18776;SDS011;9517;51.174;4.160;2022-08-02T03:43:48;19.77;;;7.67;;
18776;SDS011;9517;51.174;4.160;2022-08-02T03:46:16;18.30;;;8.20;;
18776;SDS011;9517;51.174;4.160;2022-08-02T03:48:46;17.73;;;7.57;;
18776;SDS011;9517;51.174;4.160;2022-08-02T03:51:17;16.87;;;7.50;;
18776;SDS011;9517;51.174;4.160;2022-08-02T03:53:46;18.50;;;7.43;;
18776;SDS011;9517;51.174;4.160;2022-08-02T03:56:14;17.67;;;8.47;;
18776;SDS011;9517;51.174;4.160;2022-08-02T03:58:41;21.07;;;7.73;;
18776;SDS011;9517;51.174;4.160;2022-08-02T04:01:09;18.53;;;9.27;;
18776;SDS011;9517;51.174;4.160;2022-08-02T04:03:36;19.40;;;9.63;;
18776;SDS011;9517;51.174;4.160;2022-08-02T04:06:03;18.23;;;10.17;;
18776;SDS011;9517;51.174;4.160;2022-08-02T04:08:30;19.40;;;11.00;;
18776;SDS011;9517;51.174;4.160;2022-08-02T04:10:58;22.63;;;11.23;;
18776;SDS011;9517;51.174;4.160;2022-08-02T04:13:43;21.73;;;11.93;;
18776;SDS011;9517;51.174;4.160;2022-08-02T04:16:11;26.40;;;12.90;;
18776;SDS011;9517;51.174;4.160;2022-08-02T04:18:42;23.27;;;12.73;;
18776;SDS011;9517;51.174;4.160;2022-08-02T04:21:13;21.60;;;12.27;;
18776;SDS011;9517;51.174;4.160;2022-08-02T04:23:42;26.20;;;13.30;;
18776;SDS011;9517;51.174;4.160;2022-08-02T04:26:13;23.20;;;12.97;;
18776;SDS011;9517;51.174;4.160;2022-08-02T04:28:41;22.47;;;13.13;;
18776;SDS011;9517;51.174;4.160;2022-08-02T04:31:09;25.27;;;12.70;;
18776;SDS011;9517;51.174;4.160;2022-08-02T04:33:36;27.30;;;14.10;;
18776;SDS011;9517;51.174;4.160;2022-08-02T04:36:04;23.87;;;13.33;;
18776;SDS011;9517;51.174;4.160;2022-08-02T04:38:32;21.87;;;12.77;;
18776;SDS011;9517;51.174;4.160;2022-08-02T04:40:59;26.20;;;13.83;;
18776;SDS011;9517;51.174;4.160;2022-08-02T04:43:28;23.40;;;13.60;;
18776;SDS011;9517;51.174;4.160;2022-08-02T04:45:55;24.93;;;12.90;;
18776;SDS011;9517;51.174;4.160;2022-08-02T04:48:22;20.90;;;12.93;;
18776;SDS011;9517;51.174;4.160;2022-08-02T04:50:49;25.03;;;13.90;;
18776;SDS011;9517;51.174;4.160;2022-08-02T04:53:17;22.87;;;12.67;;
18776;SDS011;9517;51.174;4.160;2022-08-02T04:55:44;28.80;;;13.13;;
18776;SDS011;9517;51.174;4.160;2022-08-02T04:58:11;21.43;;;11.87;;
18776;SDS011;9517;51.174;4.160;2022-08-02T05:00:40;22.83;;;13.00;;
18776;SDS011;9517;51.174;4.160;2022-08-02T05:03:07;23.93;;;13.00;;
18776;SDS011;9517;51.174;4.160;2022-08-02T05:05:34;26.40;;;12.63;;
18776;SDS011;9517;51.174;4.160;2022-08-02T05:08:01;24.77;;;12.97;;
18776;SDS011;9517;51.174;4.160;2022-08-02T05:10:28;22.47;;;11.50;;
18776;SDS011;9517;51.174;4.160;2022-08-02T05:12:55;25.67;;;12.67;;
18776;SDS011;9517;51.174;4.160;2022-08-02T05:15:22;22.37;;;12.37;;
18776;SDS011;9517;51.174;4.160;2022-08-02T05:17:51;19.10;;;11.70;;
18776;SDS011;9517;51.174;4.160;2022-08-02T05:20:18;21.07;;;11.50;;
18776;SDS011;9517;51.174;4.160;2022-08-02T05:22:45;24.50;;;12.50;;
18776;SDS011;9517;51.174;4.160;2022-08-02T05:25:13;23.47;;;12.23;;
18776;SDS011;9517;51.174;4.160;2022-08-02T05:27:40;21.63;;;12.40;;
18776;SDS011;9517;51.174;4.160;2022-08-02T05:30:07;27.90;;;13.20;;
18776;SDS011;9517;51.174;4.160;2022-08-02T05:32:41;22.27;;;11.87;;
18776;SDS011;9517;51.174;4.160;2022-08-02T05:35:10;21.63;;;11.80;;
18776;SDS011;9517;51.174;4.160;2022-08-02T05:37:37;25.93;;;13.63;;
18776;SDS011;9517;51.174;4.160;2022-08-02T05:40:05;20.33;;;12.70;;
18776;SDS011;9517;51.174;4.160;2022-08-02T05:42:33;22.07;;;12.37;;
18776;SDS011;9517;51.174;4.160;2022-08-02T05:45:00;21.80;;;12.43;;
18776;SDS011;9517;51.174;4.160;2022-08-02T05:47:30;23.67;;;11.63;;
18776;SDS011;9517;51.174;4.160;2022-08-02T05:50:01;24.97;;;12.40;;
18776;SDS011;9517;51.174;4.160;2022-08-02T05:52:33;25.70;;;13.13;;
18776;SDS011;9517;51.174;4.160;2022-08-02T05:55:10;22.83;;;11.93;;
18776;SDS011;9517;51.174;4.160;2022-08-02T05:57:43;21.93;;;11.53;;
18776;SDS011;9517;51.174;4.160;2022-08-02T06:00:15;22.27;;;11.90;;
18776;SDS011;9517;51.174;4.160;2022-08-02T06:02:44;21.53;;;11.37;;
18776;SDS011;9517;51.174;4.160;2022-08-02T06:05:28;21.23;;;10.77;;
18776;SDS011;9517;51.174;4.160;2022-08-02T06:08:00;21.10;;;10.77;;
18776;SDS011;9517;51.174;4.160;2022-08-02T06:10:28;18.70;;;10.10;;
18776;SDS011;9517;51.174;4.160;2022-08-02T06:12:59;19.50;;;10.50;;
18776;SDS011;9517;51.174;4.160;2022-08-02T06:15:32;18.73;;;10.33;;
18776;SDS011;9517;51.174;4.160;2022-08-02T06:18:00;19.93;;;10.20;;
18776;SDS011;9517;51.174;4.160;2022-08-02T06:20:28;17.70;;;8.17;;
18776;SDS011;9517;51.174;4.160;2022-08-02T06:23:01;14.97;;;7.77;;
18776;SDS011;9517;51.174;4.160;2022-08-02T06:25:29;17.70;;;8.70;;
18776;SDS011;9517;51.174;4.160;2022-08-02T06:27:57;17.50;;;7.80;;
18776;SDS011;9517;51.174;4.160;2022-08-02T06:30:25;17.90;;;7.83;;
18776;SDS011;9517;51.174;4.160;2022-08-02T06:32:52;18.00;;;7.33;;
18776;SDS011;9517;51.174;4.160;2022-08-02T06:35:19;17.70;;;7.40;;
18776;SDS011;9517;51.174;4.160;2022-08-02T06:37:47;14.07;;;6.93;;
18776;SDS011;9517;51.174;4.160;2022-08-02T06:40:21;14.03;;;6.33;;
18776;SDS011;9517;51.174;4.160;2022-08-02T06:42:57;16.63;;;7.80;;
18776;SDS011;9517;51.174;4.160;2022-08-02T06:45:33;13.30;;;7.20;;
18776;SDS011;9517;51.174;4.160;2022-08-02T06:48:00;14.13;;;6.60;;
18776;SDS011;9517;51.174;4.160;2022-08-02T06:50:28;15.57;;;6.10;;
18776;SDS011;9517;51.174;4.160;2022-08-02T06:52:56;14.93;;;6.63;;
18776;SDS011;9517;51.174;4.160;2022-08-02T06:55:24;11.23;;;5.47;;
18776;SDS011;9517;51.174;4.160;2022-08-02T06:57:53;15.03;;;7.20;;
18776;SDS011;9517;51.174;4.160;2022-08-02T07:00:20;16.67;;;6.47;;
18776;SDS011;9517;51.174;4.160;2022-08-02T07:02:47;18.17;;;5.90;;
18776;SDS011;9517;51.174;4.160;2022-08-02T07:05:15;14.70;;;6.17;;
18776;SDS011;9517;51.174;4.160;2022-08-02T07:07:43;13.13;;;5.73;;
18776;SDS011;9517;51.174;4.160;2022-08-02T07:10:10;12.77;;;5.37;;
18776;SDS011;9517;51.174;4.160;2022-08-02T07:12:40;14.00;;;6.30;;
18776;SDS011;9517;51.174;4.160;2022-08-02T07:15:07;13.03;;;6.23;;
18776;SDS011;9517;51.174;4.160;2022-08-02T07:17:36;12.07;;;5.27;;
18776;SDS011;9517;51.174;4.160;2022-08-02T07:20:04;12.77;;;5.93;;
18776;SDS011;9517;51.174;4.160;2022-08-02T07:22:33;18.23;;;6.17;;
18776;SDS011;9517;51.174;4.160;2022-08-02T07:25:03;14.10;;;6.00;;
18776;SDS011;9517;51.174;4.160;2022-08-02T07:27:31;13.10;;;6.77;;
18776;SDS011;9517;51.174;4.160;2022-08-02T07:30:00;14.90;;;5.97;;
18776;SDS011;9517;51.174;4.160;2022-08-02T07:32:28;15.03;;;6.00;;
18776;SDS011;9517;51.174;4.160;2022-08-02T07:34:57;12.53;;;5.30;;
18776;SDS011;9517;51.174;4.160;2022-08-02T07:37:25;15.50;;;5.70;;
18776;SDS011;9517;51.174;4.160;2022-08-02T07:39:54;12.30;;;5.67;;
18776;SDS011;9517;51.174;4.160;2022-08-02T07:42:21;12.47;;;5.00;;
18776;SDS011;9517;51.174;4.160;2022-08-02T07:44:49;12.13;;;5.00;;
18776;SDS011;9517;51.174;4.160;2022-08-02T07:47:17;12.90;;;4.93;;
18776;SDS011;9517;51.174;4.160;2022-08-02T07:49:44;16.27;;;4.57;;
18776;SDS011;9517;51.174;4.160;2022-08-02T07:52:11;10.50;;;4.07;;
18776;SDS011;9517;51.174;4.160;2022-08-02T07:54:39;13.33;;;4.27;;
18776;SDS011;9517;51.174;4.160;2022-08-02T07:57:06;8.43;;;3.63;;
18776;SDS011;9517;51.174;4.160;2022-08-02T07:59:33;14.33;;;4.27;;
18776;SDS011;9517;51.174;4.160;2022-08-02T08:02:00;12.83;;;3.50;;
18776;SDS011;9517;51.174;4.160;2022-08-02T08:04:28;15.80;;;3.77;;
18776;SDS011;9517;51.174;4.160;2022-08-02T08:06:55;13.20;;;4.03;;
18776;SDS011;9517;51.174;4.160;2022-08-02T08:09:23;9.40;;;3.23;;
18776;SDS011;9517;51.174;4.160;2022-08-02T08:11:50;12.60;;;3.50;;
18776;SDS011;9517;51.174;4.160;2022-08-02T08:14:17;10.30;;;3.50;;
18776;SDS011;9517;51.174;4.160;2022-08-02T08:16:44;7.80;;;2.90;;
18776;SDS011;9517;51.174;4.160;2022-08-02T08:19:11;9.47;;;3.20;;
18776;SDS011;9517;51.174;4.160;2022-08-02T08:21:39;9.03;;;2.77;;
18776;SDS011;9517;51.174;4.160;2022-08-02T08:24:06;7.60;;;2.67;;
18776;SDS011;9517;51.174;4.160;2022-08-02T08:26:33;11.90;;;2.80;;
18776;SDS011;9517;51.174;4.160;2022-08-02T08:29:00;23.47;;;3.07;;
18776;SDS011;9517;51.174;4.160;2022-08-02T08:31:27;19.87;;;3.20;;
18776;SDS011;9517;51.174;4.160;2022-08-02T08:33:54;7.90;;;2.80;;
18776;SDS011;9517;51.174;4.160;2022-08-02T08:36:21;10.47;;;2.50;;
18776;SDS011;9517;51.174;4.160;2022-08-02T08:38:50;10.63;;;2.40;;
18776;SDS011;9517;51.174;4.160;2022-08-02T08:41:19;6.37;;;2.20;;
18776;SDS011;9517;51.174;4.160;2022-08-02T08:43:46;7.20;;;2.00;;
18776;SDS011;9517;51.174;4.160;2022-08-02T08:46:16;13.13;;;2.50;;
18776;SDS011;9517;51.174;4.160;2022-08-02T08:48:49;12.20;;;2.43;;
18776;SDS011;9517;51.174;4.160;2022-08-02T08:51:20;7.27;;;2.10;;
18776;SDS011;9517;51.174;4.160;2022-08-02T08:53:48;8.60;;;1.80;;
18776;SDS011;9517;51.174;4.160;2022-08-02T08:56:18;9.80;;;2.43;;
18776;SDS011;9517;51.174;4.160;2022-08-02T08:58:46;3.83;;;1.30;;
18776;SDS011;9517;51.174;4.160;2022-08-02T09:01:13;5.60;;;1.90;;
18776;SDS011;9517;51.174;4.160;2022-08-02T09:03:41;7.53;;;1.60;;
18776;SDS011;9517;51.174;4.160;2022-08-02T09:06:08;8.13;;;1.80;;
18776;SDS011;9517;51.174;4.160;2022-08-02T09:08:35;5.40;;;1.50;;
18776;SDS011;9517;51.174;4.160;2022-08-02T09:11:10;6.13;;;1.40;;
18776;SDS011;9517;51.174;4.160;2022-08-02T09:13:38;6.17;;;1.40;;
18776;SDS011;9517;51.174;4.160;2022-08-02T09:16:14;8.70;;;1.80;;
18776;SDS011;9517;51.174;4.160;2022-08-02T09:18:52;5.10;;;1.90;;
18776;SDS011;9517;51.174;4.160;2022-08-02T09:21:22;6.87;;;1.70;;
18776;SDS011;9517;51.174;4.160;2022-08-02T09:23:50;8.00;;;1.83;;
18776;SDS011;9517;51.174;4.160;2022-08-02T09:26:21;8.00;;;1.57;;
18776;SDS011;9517;51.174;4.160;2022-08-02T09:28:49;8.03;;;1.60;;
18776;SDS011;9517;51.174;4.160;2022-08-02T09:31:18;6.10;;;1.20;;
18776;SDS011;9517;51.174;4.160;2022-08-02T09:33:49;5.93;;;1.40;;
18776;SDS011;9517;51.174;4.160;2022-08-02T09:36:18;4.23;;;1.50;;
18776;SDS011;9517;51.174;4.160;2022-08-02T09:38:55;5.60;;;1.50;;
18776;SDS011;9517;51.174;4.160;2022-08-02T09:41:25;7.83;;;1.97;;
18776;SDS011;9517;51.174;4.160;2022-08-02T09:43:55;7.57;;;1.52;;
18776;SDS011;9517;51.174;4.160;2022-08-02T09:46:23;5.00;;;1.42;;
18776;SDS011;9517;51.174;4.160;2022-08-02T09:48:54;8.02;;;1.75;;
18776;SDS011;9517;51.174;4.160;2022-08-02T09:51:23;3.75;;;1.17;;
18776;SDS011;9517;51.174;4.160;2022-08-02T09:53:52;13.00;;;1.70;;
18776;SDS011;9517;51.174;4.160;2022-08-02T09:56:21;4.70;;;1.48;;
18776;SDS011;9517;51.174;4.160;2022-08-02T09:58:50;5.65;;;1.40;;
18776;SDS011;9517;51.174;4.160;2022-08-02T10:01:21;3.42;;;1.40;;
18776;SDS011;9517;51.174;4.160;2022-08-02T10:03:57;3.63;;;1.42;;
18776;SDS011;9517;51.174;4.160;2022-08-02T10:06:26;4.30;;;1.40;;
18776;SDS011;9517;51.174;4.160;2022-08-02T10:08:53;7.82;;;1.60;;
18776;SDS011;9517;51.174;4.160;2022-08-02T10:11:21;7.13;;;1.40;;
18776;SDS011;9517;51.174;4.160;2022-08-02T10:13:51;6.68;;;1.70;;
18776;SDS011;9517;51.174;4.160;2022-08-02T10:16:20;7.97;;;1.80;;
18776;SDS011;9517;51.174;4.160;2022-08-02T10:18:48;4.30;;;1.40;;
18776;SDS011;9517;51.174;4.160;2022-08-02T10:21:18;6.63;;;1.40;;
18776;SDS011;9517;51.174;4.160;2022-08-02T10:23:48;5.75;;;1.33;;
18776;SDS011;9517;51.174;4.160;2022-08-02T10:26:17;4.70;;;1.60;;
18776;SDS011;9517;51.174;4.160;2022-08-02T10:28:46;5.60;;;1.45;;
18776;SDS011;9517;51.174;4.160;2022-08-02T10:31:17;5.03;;;1.50;;
18776;SDS011;9517;51.174;4.160;2022-08-02T10:33:47;8.30;;;1.60;;
18776;SDS011;9517;51.174;4.160;2022-08-02T10:36:18;8.02;;;1.58;;
18776;SDS011;9517;51.174;4.160;2022-08-02T10:38:47;4.53;;;1.55;;
18776;SDS011;9517;51.174;4.160;2022-08-02T10:41:15;3.95;;;1.33;;
18776;SDS011;9517;51.174;4.160;2022-08-02T10:44:18;5.88;;;1.90;;
18776;SDS011;9517;51.174;4.160;2022-08-02T10:46:47;18.70;;;2.05;;
18776;SDS011;9517;51.174;4.160;2022-08-02T10:49:15;6.65;;;1.58;;
18776;SDS011;9517;51.174;4.160;2022-08-02T10:51:56;8.93;;;1.85;;
18776;SDS011;9517;51.174;4.160;2022-08-02T10:54:32;4.53;;;1.60;;
18776;SDS011;9517;51.174;4.160;2022-08-02T10:57:01;5.45;;;1.63;;
18776;SDS011;9517;51.174;4.160;2022-08-02T10:59:38;7.57;;;1.60;;
18776;SDS011;9517;51.174;4.160;2022-08-02T11:02:07;8.73;;;1.70;;
18776;SDS011;9517;51.174;4.160;2022-08-02T11:07:30;10.20;;;1.60;;
18776;SDS011;9517;51.174;4.160;2022-08-02T11:12:59;5.10;;;1.38;;
18776;SDS011;9517;51.174;4.160;2022-08-02T11:15:29;13.00;;;2.08;;
18776;SDS011;9517;51.174;4.160;2022-08-02T11:18:13;4.07;;;1.20;;
18776;SDS011;9517;51.174;4.160;2022-08-02T11:20:40;8.93;;;1.70;;
18776;SDS011;9517;51.174;4.160;2022-08-02T11:26:00;8.13;;;1.60;;
18776;SDS011;9517;51.174;4.160;2022-08-02T11:28:29;6.65;;;1.80;;
18776;SDS011;9517;51.174;4.160;2022-08-02T11:30:57;6.68;;;1.50;;
18776;SDS011;9517;51.174;4.160;2022-08-02T11:33:32;6.13;;;1.63;;
18776;SDS011;9517;51.174;4.160;2022-08-02T11:36:01;4.75;;;1.80;;
18776;SDS011;9517;51.174;4.160;2022-08-02T11:38:30;7.05;;;1.70;;
18776;SDS011;9517;51.174;4.160;2022-08-02T11:40:57;4.45;;;1.20;;
18776;SDS011;9517;51.174;4.160;2022-08-02T11:43:24;5.65;;;1.70;;
18776;SDS011;9517;51.174;4.160;2022-08-02T11:45:52;6.70;;;1.42;;
18776;SDS011;9517;51.174;4.160;2022-08-02T11:48:30;3.92;;;1.30;;
18776;SDS011;9517;51.174;4.160;2022-08-02T11:51:03;10.30;;;1.80;;
18776;SDS011;9517;51.174;4.160;2022-08-02T11:53:41;5.28;;;1.50;;
18776;SDS011;9517;51.174;4.160;2022-08-02T11:56:10;5.22;;;1.50;;
18776;SDS011;9517;51.174;4.160;2022-08-02T11:58:38;9.60;;;1.48;;
18776;SDS011;9517;51.174;4.160;2022-08-02T12:01:05;4.13;;;1.42;;
18776;SDS011;9517;51.174;4.160;2022-08-02T12:03:34;4.38;;;1.67;;
18776;SDS011;9517;51.174;4.160;2022-08-02T12:06:02;9.98;;;1.92;;
18776;SDS011;9517;51.174;4.160;2022-08-02T12:08:30;7.72;;;1.88;;
18776;SDS011;9517;51.174;4.160;2022-08-02T12:11:02;9.93;;;1.55;;
18776;SDS011;9517;51.174;4.160;2022-08-02T12:13:40;12.23;;;1.80;;
18776;SDS011;9517;51.174;4.160;2022-08-02T12:16:09;8.30;;;1.77;;
18776;SDS011;9517;51.174;4.160;2022-08-02T12:18:51;20.58;;;2.15;;
18776;SDS011;9517;51.174;4.160;2022-08-02T12:21:36;10.13;;;1.80;;
18776;SDS011;9517;51.174;4.160;2022-08-02T12:24:03;6.90;;;1.77;;
18776;SDS011;9517;51.174;4.160;2022-08-02T12:26:39;13.75;;;1.85;;
18776;SDS011;9517;51.174;4.160;2022-08-02T12:29:10;10.40;;;2.40;;
18776;SDS011;9517;51.174;4.160;2022-08-02T12:31:39;8.18;;;1.88;;
18776;SDS011;9517;51.174;4.160;2022-08-02T12:34:13;7.47;;;2.03;;
18776;SDS011;9517;51.174;4.160;2022-08-02T12:36:43;10.20;;;2.33;;
18776;SDS011;9517;51.174;4.160;2022-08-02T12:39:32;7.47;;;1.67;;
18776;SDS011;9517;51.174;4.160;2022-08-02T12:42:01;7.45;;;1.77;;
18776;SDS011;9517;51.174;4.160;2022-08-02T12:44:28;5.68;;;1.92;;
18776;SDS011;9517;51.174;4.160;2022-08-02T12:46:59;5.88;;;1.45;;
18776;SDS011;9517;51.174;4.160;2022-08-02T12:49:29;14.02;;;1.77;;
18776;SDS011;9517;51.174;4.160;2022-08-02T12:51:57;11.10;;;2.08;;
18776;SDS011;9517;51.174;4.160;2022-08-02T12:54:25;6.88;;;1.70;;
18776;SDS011;9517;51.174;4.160;2022-08-02T12:56:53;5.35;;;1.75;;
18776;SDS011;9517;51.174;4.160;2022-08-02T12:59:33;6.07;;;1.55;;
18776;SDS011;9517;51.174;4.160;2022-08-02T13:02:02;5.47;;;1.50;;
18776;SDS011;9517;51.174;4.160;2022-08-02T13:04:32;7.28;;;1.95;;
18776;SDS011;9517;51.174;4.160;2022-08-02T13:06:59;6.35;;;1.80;;
18776;SDS011;9517;51.174;4.160;2022-08-02T13:09:27;7.70;;;2.00;;
18776;SDS011;9517;51.174;4.160;2022-08-02T13:12:00;4.45;;;1.50;;
18776;SDS011;9517;51.174;4.160;2022-08-02T13:14:27;9.85;;;2.05;;
18776;SDS011;9517;51.174;4.160;2022-08-02T13:16:54;11.10;;;1.85;;
18776;SDS011;9517;51.174;4.160;2022-08-02T13:19:23;6.55;;;1.50;;
18776;SDS011;9517;51.174;4.160;2022-08-02T13:21:52;7.22;;;1.50;;
18776;SDS011;9517;51.174;4.160;2022-08-02T13:24:19;9.18;;;1.63;;
18776;SDS011;9517;51.174;4.160;2022-08-02T13:26:46;7.72;;;2.15;;
18776;SDS011;9517;51.174;4.160;2022-08-02T13:29:14;5.00;;;1.48;;
18776;SDS011;9517;51.174;4.160;2022-08-02T13:31:41;5.60;;;1.73;;
18776;SDS011;9517;51.174;4.160;2022-08-02T13:34:08;7.30;;;1.70;;
18776;SDS011;9517;51.174;4.160;2022-08-02T13:36:35;6.30;;;1.65;;
18776;SDS011;9517;51.174;4.160;2022-08-02T13:39:03;5.30;;;1.90;;
18776;SDS011;9517;51.174;4.160;2022-08-02T13:41:31;8.50;;;2.00;;
18776;SDS011;9517;51.174;4.160;2022-08-02T13:43:58;9.98;;;2.00;;
18776;SDS011;9517;51.174;4.160;2022-08-02T13:46:25;7.22;;;1.95;;
18776;SDS011;9517;51.174;4.160;2022-08-02T13:48:52;13.80;;;1.90;;
18776;SDS011;9517;51.174;4.160;2022-08-02T13:51:19;9.40;;;1.98;;
18776;SDS011;9517;51.174;4.160;2022-08-02T13:53:46;8.27;;;1.77;;
18776;SDS011;9517;51.174;4.160;2022-08-02T13:56:17;9.75;;;2.35;;
18776;SDS011;9517;51.174;4.160;2022-08-02T13:58:44;7.13;;;1.52;;
18776;SDS011;9517;51.174;4.160;2022-08-02T14:01:11;8.27;;;1.52;;
18776;SDS011;9517;51.174;4.160;2022-08-02T14:03:38;7.68;;;1.40;;
18776;SDS011;9517;51.174;4.160;2022-08-02T14:06:05;18.92;;;2.80;;
18776;SDS011;9517;51.174;4.160;2022-08-02T14:08:33;7.18;;;1.50;;
18776;SDS011;9517;51.174;4.160;2022-08-02T14:11:00;25.75;;;4.47;;
18776;SDS011;9517;51.174;4.160;2022-08-02T14:13:28;14.30;;;2.15;;
18776;SDS011;9517;51.174;4.160;2022-08-02T14:15:55;17.58;;;3.63;;
18776;SDS011;9517;51.174;4.160;2022-08-02T14:18:23;16.00;;;2.47;;
18776;SDS011;9517;51.174;4.160;2022-08-02T14:20:51;56.45;;;6.78;;
18776;SDS011;9517;51.174;4.160;2022-08-02T14:23:18;9.10;;;2.03;;
18776;SDS011;9517;51.174;4.160;2022-08-02T14:25:45;7.05;;;1.40;;
18776;SDS011;9517;51.174;4.160;2022-08-02T14:28:12;9.07;;;2.13;;
18776;SDS011;9517;51.174;4.160;2022-08-02T14:30:41;7.15;;;1.48;;
18776;SDS011;9517;51.174;4.160;2022-08-02T14:33:08;12.48;;;1.70;;
18776;SDS011;9517;51.174;4.160;2022-08-02T14:35:35;9.65;;;1.80;;
18776;SDS011;9517;51.174;4.160;2022-08-02T14:38:02;8.98;;;2.08;;
18776;SDS011;9517;51.174;4.160;2022-08-02T14:40:29;6.38;;;1.55;;
18776;SDS011;9517;51.174;4.160;2022-08-02T14:42:56;6.30;;;1.40;;
18776;SDS011;9517;51.174;4.160;2022-08-02T14:45:24;6.03;;;1.33;;
18776;SDS011;9517;51.174;4.160;2022-08-02T14:47:55;12.02;;;1.50;;
18776;SDS011;9517;51.174;4.160;2022-08-02T14:50:22;9.00;;;1.60;;
18776;SDS011;9517;51.174;4.160;2022-08-02T14:52:49;7.55;;;1.73;;
18776;SDS011;9517;51.174;4.160;2022-08-02T14:55:16;44.10;;;6.22;;
18776;SDS011;9517;51.174;4.160;2022-08-02T14:57:43;9.00;;;1.58;;
18776;SDS011;9517;51.174;4.160;2022-08-02T15:00:10;12.00;;;2.03;;
18776;SDS011;9517;51.174;4.160;2022-08-02T15:02:38;11.00;;;2.05;;
18776;SDS011;9517;51.174;4.160;2022-08-02T15:05:07;6.15;;;1.67;;
18776;SDS011;9517;51.174;4.160;2022-08-02T15:07:34;8.23;;;1.70;;
18776;SDS011;9517;51.174;4.160;2022-08-02T15:10:01;5.53;;;1.27;;
18776;SDS011;9517;51.174;4.160;2022-08-02T15:12:28;7.43;;;1.70;;
18776;SDS011;9517;51.174;4.160;2022-08-02T15:14:55;5.32;;;1.38;;
18776;SDS011;9517;51.174;4.160;2022-08-02T15:17:24;7.95;;;1.73;;